Time;durP1;ratioP1;P1;durP2;ratioP2;P2;SDS_P1;SDS_P2;PMS_P1;PMS_P2;Temp;Humidity;BMP_temperature;BMP_pressure;BME280_temperature;BME280_humidity;BME280_pressure;Samples;Min_cycle;Max_cycle;Signal;HPM_P1;HPM_P2
2021/03/02 00:02:25;;;;;;;28.10;14.77;;;;;;;2.94;100.00;102602.75;4929266;29;20036;-72
2021/03/02 00:04:51;;;;;;;32.15;14.60;;;;;;;2.94;100.00;102603.63;4938240;29;20082;-72
2021/03/02 00:07:16;;;;;;;31.25;15.32;;;;;;;2.94;100.00;102606.28;4897013;29;20510;-70
2021/03/02 00:09:43;;;;;;;31.60;15.48;;;;;;;2.94;100.00;102602.75;4927267;29;20435;-71
2021/03/02 00:12:09;;;;;;;27.98;14.15;;;;;;;2.93;100.00;102601.88;4903744;29;20506;-71
2021/03/02 00:14:38;;;;;;;27.73;13.93;;;;;;;2.92;100.00;102600.09;4932662;29;20039;-70
2021/03/02 00:17:08;;;;;;;28.80;13.95;;;;;;;2.92;100.00;102607.16;4938339;29;20070;-70
2021/03/02 00:19:43;;;;;;;25.85;12.65;;;;;;;2.91;100.00;102603.63;4930327;29;20102;-72
2021/03/02 00:22:22;;;;;;;29.55;13.32;;;;;;;2.90;100.00;102599.19;4933511;29;20040;-70
2021/03/02 00:24:50;;;;;;;32.17;14.32;;;;;;;2.89;100.00;102605.41;4927356;29;20357;-71
2021/03/02 00:27:17;;;;;;;28.23;14.05;;;;;;;2.87;100.00;102604.53;4903391;29;20122;-72
2021/03/02 00:29:43;;;;;;;29.25;14.02;;;;;;;2.84;100.00;102601.88;4918939;29;20524;-71
2021/03/02 00:32:09;;;;;;;27.13;13.98;;;;;;;2.82;100.00;102608.97;4917200;29;20039;-70
2021/03/02 00:34:34;;;;;;;27.27;13.05;;;;;;;2.80;100.00;102608.06;4927762;29;20075;-71
2021/03/02 00:37:00;;;;;;;30.95;14.52;;;;;;;2.77;100.00;102605.44;4928105;29;20068;-71
2021/03/02 00:39:29;;;;;;;28.13;13.18;;;;;;;2.76;100.00;102604.56;4912574;29;20040;-71
2021/03/02 00:41:54;;;;;;;34.00;14.50;;;;;;;2.74;100.00;102608.09;4932675;29;20174;-70
2021/03/02 00:44:19;;;;;;;36.55;14.00;;;;;;;2.72;100.00;102596.59;4915439;29;20397;-70
2021/03/02 00:46:45;;;;;;;30.27;14.73;;;;;;;2.69;100.00;102597.50;4914213;29;20771;-71
2021/03/02 00:49:11;;;;;;;28.30;13.38;;;;;;;2.67;100.00;102608.97;4917065;29;20178;-71
2021/03/02 00:51:36;;;;;;;34.20;14.15;;;;;;;2.64;100.00;102609.00;4929019;29;20782;-70
2021/03/02 00:54:02;;;;;;;30.48;14.55;;;;;;;2.62;100.00;102602.81;4921277;29;20028;-70
2021/03/02 00:56:28;;;;;;;31.00;13.93;;;;;;;2.59;100.00;102610.78;4929681;29;20059;-71
2021/03/02 00:58:53;;;;;;;25.55;12.77;;;;;;;2.56;100.00;102606.34;4929808;29;20040;-71
2021/03/02 01:01:19;;;;;;;24.35;12.43;;;;;;;2.52;100.00;102615.22;4914316;29;20074;-72
2021/03/02 01:03:45;;;;;;;27.40;13.00;;;;;;;2.49;100.00;102620.50;4932113;29;20078;-70
2021/03/02 01:06:13;;;;;;;27.88;13.27;;;;;;;2.48;100.00;102604.59;4912982;29;20044;-71
2021/03/02 01:08:39;;;;;;;30.17;14.27;;;;;;;2.44;100.00;102601.06;4913737;29;20086;-71
2021/03/02 01:11:06;;;;;;;30.90;13.85;;;;;;;2.43;100.00;102609.91;4912050;29;20039;-70
2021/03/02 01:13:33;;;;;;;31.98;13.77;;;;;;;2.40;100.00;102610.81;4911572;29;20827;-71
2021/03/02 01:15:59;;;;;;;29.23;13.45;;;;;;;2.38;100.00;102612.56;4928236;29;20047;-71
2021/03/02 01:18:24;;;;;;;33.60;15.10;;;;;;;2.37;100.00;102610.78;4928428;29;20076;-71
2021/03/02 01:20:50;;;;;;;31.15;14.45;;;;;;;2.33;100.00;102609.03;4929521;29;20047;-72
2021/03/02 01:23:15;;;;;;;28.92;13.60;;;;;;;2.32;100.00;102609.91;4931328;29;20251;-70
2021/03/02 01:25:40;;;;;;;31.67;14.35;;;;;;;2.29;100.00;102607.25;4929854;29;20035;-71
2021/03/02 01:28:06;;;;;;;33.45;13.98;;;;;;;2.27;100.00;102608.16;4913979;29;20043;-70
2021/03/02 01:30:32;;;;;;;29.88;12.90;;;;;;;2.23;100.00;102607.25;4927887;29;20544;-72
2021/03/02 01:32:57;;;;;;;27.63;14.07;;;;;;;2.20;100.00;102599.31;4924573;29;20048;-71
2021/03/02 01:35:23;;;;;;;28.85;13.60;;;;;;;2.18;100.00;102601.06;4912148;29;20044;-72
2021/03/02 01:37:48;;;;;;;34.17;14.93;;;;;;;2.17;100.00;102596.66;4928901;29;20168;-70
2021/03/02 01:40:16;;;;;;;27.85;14.30;;;;;;;2.15;100.00;102592.25;4929175;29;20047;-71
2021/03/02 01:42:43;;;;;;;30.95;14.50;;;;;;;2.15;100.00;102594.91;4920079;29;20066;-70
2021/03/02 01:45:11;;;;;;;28.83;14.07;;;;;;;2.14;100.00;102595.78;4913076;29;20035;-72
2021/03/02 01:47:37;;;;;;;29.13;13.55;;;;;;;2.12;100.00;102592.25;4928882;29;20063;-71
2021/03/02 01:50:04;;;;;;;25.70;13.40;;;;;;;2.13;100.00;102599.31;4927496;29;20032;-71
2021/03/02 01:52:29;;;;;;;27.50;13.00;;;;;;;2.11;100.00;102595.75;4934353;29;20023;-71
2021/03/02 01:54:55;;;;;;;26.42;12.88;;;;;;;2.10;100.00;102597.53;4925011;29;20043;-71
2021/03/02 01:57:20;;;;;;;24.42;12.05;;;;;;;2.08;100.00;102587.84;4937400;29;20035;-71
2021/03/02 01:59:46;;;;;;;27.10;12.48;;;;;;;2.05;100.00;102596.66;4910661;29;20047;-71
2021/03/02 02:02:17;;;;;;;27.70;13.65;;;;;;;2.01;100.00;102589.59;4918847;29;20130;-71
2021/03/02 02:04:50;;;;;;;30.30;14.25;;;;;;;1.98;100.00;102593.09;4929548;29;20036;-70
2021/03/02 02:07:27;;;;;;;28.30;13.63;;;;;;;1.95;100.00;102589.59;4919753;29;20039;-70
2021/03/02 02:10:08;;;;;;;26.10;12.95;;;;;;;1.90;100.00;102581.66;4927949;29;20051;-72
2021/03/02 02:12:36;;;;;;;29.85;13.85;;;;;;;1.86;100.00;102584.25;4931237;29;20424;-72
2021/03/02 02:15:09;;;;;;;25.55;11.93;;;;;;;1.83;100.00;102586.94;4927515;29;20062;-71
2021/03/02 02:17:57;;;;;;;28.95;14.10;;;;;;;1.81;100.00;102581.63;4910212;29;20043;-71
2021/03/02 02:20:34;;;;;;;29.52;14.23;;;;;;;1.73;100.00;102588.66;4928689;29;20119;-71
2021/03/02 02:23:03;;;;;;;27.75;12.82;;;;;;;1.68;100.00;102586.88;4927905;29;20058;-70
2021/03/02 02:25:50;;;;;;;23.60;11.60;;;;;;;1.61;100.00;102588.63;4917736;29;20060;-72
2021/03/02 02:28:19;;;;;;;26.95;13.77;;;;;;;1.55;100.00;102578.91;4926816;29;20097;-70
2021/03/02 02:30:56;;;;;;;25.73;12.02;;;;;;;1.53;100.00;102590.41;4935048;29;20579;-71
2021/03/02 02:33:24;;;;;;;26.95;12.57;;;;;;;1.51;100.00;102585.09;4928793;29;20031;-71
2021/03/02 02:35:51;;;;;;;24.92;12.18;;;;;;;1.52;100.00;102578.94;4928159;29;20375;-71
2021/03/02 02:38:20;;;;;;;28.55;12.82;;;;;;;1.54;100.00;102579.78;4925821;29;20507;-71
2021/03/02 02:40:48;;;;;;;29.75;13.15;;;;;;;1.55;100.00;102578.91;4929356;29;20032;-70
2021/03/02 02:43:16;;;;;;;35.28;12.77;;;;;;;1.56;100.00;102574.50;4926944;29;20530;-71
2021/03/02 02:45:41;;;;;;;34.63;14.60;;;;;;;1.56;100.00;102575.41;4928094;29;20035;-71
2021/03/02 02:48:09;;;;;;;27.98;12.73;;;;;;;1.54;100.00;102571.84;4926777;29;20035;-70
2021/03/02 02:50:35;;;;;;;30.33;13.48;;;;;;;1.53;100.00;102575.41;4928162;29;20036;-70
2021/03/02 02:53:01;;;;;;;29.35;13.68;;;;;;;1.52;100.00;102572.75;4930584;28;20032;-71
2021/03/02 02:55:43;;;;;;;28.17;13.18;;;;;;;1.49;100.00;102576.25;4910238;29;20039;-71
2021/03/02 02:58:10;;;;;;;30.20;13.23;;;;;;;1.46;100.00;102570.09;4925991;29;20039;-70
2021/03/02 03:00:38;;;;;;;34.95;14.63;;;;;;;1.44;100.00;102566.53;4914154;29;20066;-71
2021/03/02 03:03:11;;;;;;;31.15;13.43;;;;;;;1.43;100.00;102568.31;4920261;29;20044;-71
2021/03/02 03:05:39;;;;;;;;;;;;;;;1.42;100.00;102577.13;4932354;29;20495;-72
2021/03/02 03:08:14;;;;;;;35.33;14.63;;;;;;;1.39;100.00;102568.28;4928809;29;20377;-72
2021/03/02 03:10:44;;;;;;;32.58;14.07;;;;;;;1.37;100.00;102570.94;4933155;29;20414;-71
2021/03/02 03:13:13;;;;;;;33.22;14.10;;;;;;;1.36;100.00;102577.09;4932553;29;20094;-70
2021/03/02 03:15:45;;;;;;;30.92;13.77;;;;;;;1.35;100.00;102564.78;4931112;29;20043;-72
2021/03/02 03:18:12;;;;;;;28.42;13.93;;;;;;;1.35;100.00;102570.06;4916179;29;20122;-71
2021/03/02 03:20:38;;;;;;;32.05;14.27;;;;;;;1.34;100.00;102573.59;4937038;29;20032;-71
2021/03/02 03:23:07;;;;;;;27.65;12.77;;;;;;;1.33;100.00;102571.81;4919396;29;20032;-70
2021/03/02 03:25:34;;;;;;;33.83;13.93;;;;;;;1.33;100.00;102561.22;4935471;29;20035;-70
2021/03/02 03:28:04;;;;;;;33.60;13.88;;;;;;;1.31;100.00;102565.63;4920695;29;20042;-72
2021/03/02 03:30:33;;;;;;;32.90;15.15;;;;;;;1.31;100.00;102570.91;4930826;29;20584;-70
2021/03/02 03:33:01;;;;;;;29.98;13.65;;;;;;;1.31;100.00;102568.25;4927834;29;20115;-70
2021/03/02 03:35:29;;;;;;;34.03;14.45;;;;;;;1.28;100.00;102570.91;4914564;29;20519;-70
2021/03/02 03:37:54;;;;;;;23.15;12.57;;;;;;;1.27;100.00;102568.25;4912577;29;20028;-71
2021/03/02 03:40:21;;;;;;;30.20;13.18;;;;;;;1.23;100.00;102572.66;4931237;29;20548;-71
2021/03/02 03:42:46;;;;;;;27.85;13.13;;;;;;;1.17;100.00;102565.56;4928780;29;20040;-70
2021/03/02 03:45:12;;;;;;;32.97;13.25;;;;;;;1.11;100.00;102564.69;4913873;29;20086;-71
2021/03/02 03:47:38;;;;;;;31.15;12.63;;;;;;;1.10;100.00;102569.09;4909186;29;20529;-70
2021/03/02 03:50:04;;;;;;;33.28;12.75;;;;;;;1.09;100.00;102564.66;4930911;29;20435;-70
2021/03/02 03:52:31;;;;;;;28.65;12.48;;;;;;;1.10;100.00;102570.84;4914677;29;20050;-71
2021/03/02 03:54:59;;;;;;;29.13;12.98;;;;;;;1.06;100.00;102563.75;4931201;29;20040;-71
2021/03/02 03:57:25;;;;;;;27.17;13.20;;;;;;;1.05;100.00;102564.66;4925745;29;20450;-71
2021/03/02 03:59:52;;;;;;;31.52;13.57;;;;;;;1.03;100.00;102562.00;4913371;29;20035;-72
2021/03/02 04:02:19;;;;;;;26.35;12.32;;;;;;;1.02;100.00;102564.63;4917831;29;20039;-71
2021/03/02 04:04:46;;;;;;;25.85;12.07;;;;;;;0.98;100.00;102560.22;4929991;29;20047;-72
2021/03/02 04:07:14;;;;;;;25.80;12.60;;;;;;;0.95;100.00;102565.47;4916457;29;20039;-70
2021/03/02 04:09:40;;;;;;;28.33;12.82;;;;;;;0.90;100.00;102564.56;4930044;29;20043;-70
2021/03/02 04:12:09;;;;;;;28.42;12.48;;;;;;;0.88;100.00;102572.50;4913083;29;20032;-70
2021/03/02 04:14:34;;;;;;;27.58;12.43;;;;;;;0.85;100.00;102575.13;4930018;29;20043;-70
2021/03/02 04:17:02;;;;;;;23.15;11.38;;;;;;;0.85;100.00;102571.59;4935474;29;20043;-71
2021/03/02 04:19:28;;;;;;;28.92;12.10;;;;;;;0.84;100.00;102575.13;4930594;29;20032;-71
2021/03/02 04:21:53;;;;;;;31.73;13.18;;;;;;;0.82;100.00;102578.63;4934452;29;20311;-70
2021/03/02 04:24:19;;;;;;;29.90;13.40;;;;;;;0.81;100.00;102574.22;4916855;29;20046;-71
2021/03/02 04:26:47;;;;;;;27.77;13.15;;;;;;;0.79;100.00;102570.72;4919649;29;20047;-71
2021/03/02 04:29:12;;;;;;;29.70;12.77;;;;;;;0.77;100.00;102569.81;4931837;29;20035;-71
2021/03/02 04:31:38;;;;;;;35.88;13.93;;;;;;;0.73;100.00;102568.03;4929692;29;20035;-71
2021/03/02 04:34:03;;;;;;;29.15;13.43;;;;;;;0.72;100.00;102566.25;4929986;29;20043;-71
2021/03/02 04:36:29;;;;;;;30.02;13.75;;;;;;;0.69;100.00;102566.22;4929409;29;20081;-70
2021/03/02 04:38:54;;;;;;;31.35;14.35;;;;;;;0.66;100.00;102574.16;4928790;29;20035;-70
2021/03/02 04:41:23;;;;;;;31.85;13.88;;;;;;;0.61;100.00;102570.59;4929180;29;20483;-70
2021/03/02 04:43:48;;;;;;;30.95;12.95;;;;;;;0.58;100.00;102574.97;4912076;29;20127;-71
2021/03/02 04:46:14;;;;;;;32.13;13.25;;;;;;;0.55;100.00;102573.22;4911894;29;20118;-70
2021/03/02 04:48:39;;;;;;;37.47;14.25;;;;;;;0.52;100.00;102567.00;4929297;29;20031;-71
2021/03/02 04:51:05;;;;;;;33.55;14.93;;;;;;;0.49;100.00;102578.44;4931414;29;20763;-72
2021/03/02 04:53:31;;;;;;;31.05;13.65;;;;;;;0.49;100.00;102573.16;4912994;29;20036;-70
2021/03/02 04:55:56;;;;;;;27.73;14.13;;;;;;;0.48;100.00;102574.03;4930386;29;20110;-71
2021/03/02 04:58:21;;;;;;;34.17;15.73;;;;;;;0.47;100.00;102574.00;4937366;29;20609;-71
2021/03/02 05:00:47;;;;;;;34.80;14.80;;;;;;;0.45;100.00;102571.34;4932343;29;20034;-71
2021/03/02 05:03:12;;;;;;;29.42;14.02;;;;;;;0.43;100.00;102562.56;4920473;29;20086;-70
2021/03/02 05:05:37;;;;;;;35.33;15.70;;;;;;;0.42;100.00;102571.34;4927043;29;20044;-72
2021/03/02 05:08:04;;;;;;;34.90;14.60;;;;;;;0.43;100.00;102565.19;4913661;29;20079;-70
2021/03/02 05:10:29;;;;;;;31.88;14.10;;;;;;;0.44;100.00;102566.94;4929914;29;20645;-70
2021/03/02 05:12:54;;;;;;;32.83;14.73;;;;;;;0.44;100.00;102566.94;4928694;29;20078;-71
2021/03/02 05:15:20;;;;;;;32.78;14.70;;;;;;;0.42;100.00;102560.78;4928654;29;20034;-72
2021/03/02 05:17:45;;;;;;;34.17;13.10;;;;;;;0.38;100.00;102554.59;4927978;29;20059;-71
2021/03/02 05:20:11;;;;;;;29.73;13.52;;;;;;;0.35;100.00;102557.22;4929849;29;20503;-70
2021/03/02 05:22:37;;;;;;;34.45;13.70;;;;;;;0.32;100.00;102558.94;4928203;29;20055;-70
2021/03/02 05:25:04;;;;;;;29.00;13.55;;;;;;;0.30;100.00;102558.06;4936464;29;20517;-70
2021/03/02 05:27:29;;;;;;;31.25;13.60;;;;;;;0.29;100.00;102561.56;4911715;29;20035;-70
2021/03/02 05:29:54;;;;;;;33.85;14.68;;;;;;;0.28;100.00;102557.16;4915539;29;20039;-70
2021/03/02 05:32:20;;;;;;;31.33;13.80;;;;;;;0.26;100.00;102558.88;4928281;29;20031;-70
2021/03/02 05:34:45;;;;;;;29.58;13.20;;;;;;;0.24;100.00;102558.00;4917118;29;20035;-71
2021/03/02 05:37:11;;;;;;;29.98;14.63;;;;;;;0.25;100.00;102560.66;4915699;29;20041;-73
2021/03/02 05:39:36;;;;;;;30.80;12.85;;;;;;;0.26;100.00;102558.88;4928168;29;20024;-72
2021/03/02 05:42:02;;;;;;;31.90;14.02;;;;;;;0.25;100.00;102558.00;4928417;29;20837;-72
2021/03/02 05:44:28;;;;;;;34.65;13.90;;;;;;;0.24;100.00;102561.53;4912646;29;20027;-72
2021/03/02 05:46:54;;;;;;;34.35;14.65;;;;;;;0.20;100.00;102564.13;4915568;29;20040;-72
2021/03/02 05:49:20;;;;;;;33.72;13.85;;;;;;;0.15;100.00;102561.47;4926728;29;20653;-72
2021/03/02 05:51:46;;;;;;;30.88;12.88;;;;;;;0.14;100.00;102558.81;4910876;29;20043;-72
2021/03/02 05:54:11;;;;;;;28.92;13.35;;;;;;;0.08;100.00;102559.63;4910724;29;20051;-72
2021/03/02 05:56:40;;;;;;;30.80;12.88;;;;;;;0.06;100.00;102565.78;4928711;29;20518;-72
2021/03/02 05:59:06;;;;;;;28.00;13.88;;;;;;;0.04;100.00;102563.13;4915803;29;20517;-71
2021/03/02 06:01:32;;;;;;;27.48;13.27;;;;;;;0.05;100.00;102564.03;4913844;29;20122;-71
2021/03/02 06:03:58;;;;;;;31.60;14.25;;;;;;;0.06;100.00;102556.13;4926805;29;20039;-72
2021/03/02 06:06:24;;;;;;;30.13;14.13;;;;;;;0.06;100.00;102560.50;4931420;29;20391;-72
2021/03/02 06:08:49;;;;;;;28.23;13.90;;;;;;;0.04;100.00;102555.22;4926069;29;20079;-71
2021/03/02 06:11:44;;;;;;;27.35;13.57;;;;;;;0.04;100.00;102551.69;4935958;29;20056;-72
2021/03/02 06:14:21;;;;;;;29.85;13.73;;;;;;;0.01;100.00;102547.25;4926375;29;20049;-71
2021/03/02 06:16:51;;;;;;;33.45;14.07;;;;;;;0.01;100.00;102552.53;4908753;29;20246;-72
2021/03/02 06:19:36;;;;;;;29.73;12.20;;;;;;;0.00;100.00;102551.66;4930739;29;20482;-69
2021/03/02 06:22:41;;;;;;;26.45;13.40;;;;;;;0.00;100.00;102551.66;4912558;29;20039;-71
2021/03/02 06:25:25;;;;;;;34.90;14.73;;;;;;;0.01;100.00;102552.53;4927089;29;20106;-70
2021/03/02 06:27:50;;;;;;;28.23;14.23;;;;;;;0.02;100.00;102548.13;4928665;29;20041;-72
2021/03/02 06:30:16;;;;;;;31.35;15.25;;;;;;;0.05;100.00;102553.47;4926644;29;20028;-72
2021/03/02 06:32:45;;;;;;;33.80;14.10;;;;;;;0.06;100.00;102555.22;4926663;29;20090;-72
2021/03/02 06:35:12;;;;;;;32.88;14.95;;;;;;;0.08;100.00;102570.19;4927653;29;20037;-72
2021/03/02 06:37:41;;;;;;;30.65;14.35;;;;;;;0.10;100.00;102568.47;4934299;29;20039;-71
2021/03/02 06:40:09;;;;;;;32.10;14.48;;;;;;;0.13;100.00;102581.69;4931491;29;20061;-71
2021/03/02 06:42:42;;;;;;;34.38;15.82;;;;;;;0.14;100.00;102574.63;4924241;29;20406;-71
2021/03/02 06:45:10;;;;;;;35.38;14.88;;;;;;;0.17;100.00;102579.97;4912417;29;20120;-70
2021/03/02 06:47:43;;;;;;;34.75;14.50;;;;;;;0.20;100.00;102578.22;4913430;29;20318;-71
2021/03/02 06:50:11;;;;;;;;;;;;;;;0.21;100.00;102574.72;4928957;29;20050;-71
2021/03/02 06:52:42;;;;;;;35.15;14.00;;;;;;;0.22;100.00;102568.56;4929164;29;20027;-71
2021/03/02 06:55:17;;;;;;;30.75;14.15;;;;;;;0.23;100.00;102572.09;4930223;29;20046;-69
2021/03/02 06:57:46;;;;;;;30.17;14.40;;;;;;;0.23;100.00;102569.44;4913641;29;20558;-72
2021/03/02 07:00:13;;;;;;;31.58;14.45;;;;;;;0.26;100.00;102575.63;4928994;29;20065;-70
2021/03/02 07:02:40;;;;;;;32.20;14.73;;;;;;;0.26;100.00;102572.09;4938717;29;20090;-71
2021/03/02 07:05:17;;;;;;;38.78;15.85;;;;;;;0.32;100.00;102574.78;4930254;29;20035;-69
2021/03/02 07:07:47;;;;;;;34.03;16.35;;;;;;;0.34;100.00;102576.56;4928828;29;20039;-70
2021/03/02 07:10:14;;;;;;;39.67;16.75;;;;;;;0.42;100.00;102574.00;4930219;29;20047;-70
2021/03/02 07:12:41;;;;;;;36.38;16.88;;;;;;;0.55;100.00;102583.78;4931808;29;20034;-71
2021/03/02 07:15:17;;;;;;;36.67;16.20;;;;;;;0.65;100.00;102585.59;4930209;29;20028;-70
2021/03/02 07:17:44;;;;;;;41.60;16.77;;;;;;;0.80;100.00;102582.16;4912981;29;20378;-71
2021/03/02 07:20:12;;;;;;;42.85;18.35;;;;;;;1.03;100.00;102587.56;4930618;29;20030;-70
2021/03/02 07:22:42;;;;;;;44.90;18.35;;;;;;;1.27;100.00;102582.38;4935579;29;20046;-71
2021/03/02 07:25:10;;;;;;;43.58;19.20;;;;;;;1.55;100.00;102576.28;4916045;29;20028;-71
2021/03/02 07:27:42;;;;;;;46.58;19.08;;;;;;;2.03;100.00;102582.53;4924899;29;20039;-71
2021/03/02 07:30:12;;;;;;;47.70;17.40;;;;;;;2.55;100.00;102575.44;4930470;29;20056;-71
2021/03/02 07:32:39;;;;;;;36.85;17.00;;;;;;;3.09;100.00;102586.75;4928990;29;20087;-71
2021/03/02 07:35:09;;;;;;;30.40;14.75;;;;;;;3.67;100.00;102587.38;4930345;29;20130;-71
2021/03/02 07:37:35;;;;;;;26.02;12.93;;;;;;;4.16;100.00;102584.38;4920547;29;20414;-71
2021/03/02 07:40:08;;;;;;;32.22;12.95;;;;;;;4.60;100.00;102584.84;4928632;29;20207;-70
2021/03/02 07:42:34;;;;;;;24.60;14.07;;;;;;;5.12;100.00;102587.81;4930185;29;20070;-70
2021/03/02 07:45:15;;;;;;;24.65;10.95;;;;;;;5.53;100.00;102597.94;4933974;29;20140;-71
2021/03/02 07:47:50;;;;;;;23.17;12.43;;;;;;;5.91;97.86;102589.44;4919045;29;20118;-71
2021/03/02 07:50:29;;;;;;;20.35;11.32;;;;;;;6.25;95.18;102588.88;4929797;29;20473;-71
2021/03/02 07:53:17;;;;;;;23.95;10.65;;;;;;;6.46;93.52;102585.88;4928460;29;20032;-71
2021/03/02 07:55:43;;;;;;;33.00;12.23;;;;;;;6.60;91.75;102590.97;4912277;29;20114;-72
2021/03/02 07:58:20;;;;;;;22.80;11.35;;;;;;;6.78;90.46;102601.31;4927062;29;20091;-72
2021/03/02 08:00:50;;;;;;;24.83;11.00;;;;;;;6.99;89.19;102600.88;4916166;29;20031;-70
2021/03/02 08:03:25;;;;;;;21.25;11.25;;;;;;;7.31;88.17;102595.78;4912506;29;20036;-71
2021/03/02 08:05:53;;;;;;;21.60;10.93;;;;;;;7.64;86.59;102596.84;4929703;29;20039;-72
2021/03/02 08:08:24;;;;;;;18.73;9.38;;;;;;;7.76;84.67;102606.38;4917868;29;20194;-72
2021/03/02 08:11:13;;;;;;;18.77;9.43;;;;;;;7.93;84.46;102598.84;4929563;29;20118;-72
2021/03/02 08:13:43;;;;;;;16.65;8.57;;;;;;;7.90;83.81;102596.22;4905962;29;20547;-72
2021/03/02 08:16:10;;;;;;;29.33;9.07;;;;;;;8.34;82.73;102597.00;4926689;29;20039;-71
2021/03/02 08:18:45;;;;;;;15.50;8.50;;;;;;;8.53;80.93;102603.63;4912802;29;20495;-71
2021/03/02 08:21:19;;;;;;;19.42;8.55;;;;;;;8.62;80.32;102614.13;4913103;29;20035;-72
2021/03/02 08:23:49;;;;;;;18.42;8.15;;;;;;;8.94;78.53;102618.63;4912224;29;20124;-72
2021/03/02 08:26:36;;;;;;;21.52;9.23;;;;;;;9.20;77.24;102616.06;4932215;29;20049;-72
2021/03/02 08:29:10;;;;;;;17.58;9.00;;;;;;;9.24;76.57;102623.13;4909057;29;20797;-71
2021/03/02 08:31:38;;;;;;;16.98;9.05;;;;;;;9.62;75.14;102619.31;4909223;29;20042;-70
2021/03/02 08:34:06;;;;;;;16.17;8.50;;;;;;;10.11;74.00;102617.78;4912855;29;20031;-71
2021/03/02 08:36:31;;;;;;;15.68;8.45;;;;;;;10.28;72.35;102620.84;4930467;29;20046;-72
2021/03/02 08:38:57;;;;;;;16.33;8.00;;;;;;;10.50;71.30;102621.88;4928601;29;20040;-71
2021/03/02 08:41:28;;;;;;;22.38;8.05;;;;;;;10.46;70.13;102625.59;4928513;29;20054;-72
2021/03/02 08:43:53;;;;;;;16.02;8.30;;;;;;;10.72;69.54;102627.41;4910525;29;20032;-72
2021/03/02 08:46:34;;;;;;;18.08;8.10;;;;;;;10.86;68.83;102629.59;4931680;29;20477;-73
2021/03/02 08:49:11;;;;;;;14.57;7.78;;;;;;;10.73;69.07;102621.09;4927633;29;20110;-73
2021/03/02 08:51:37;;;;;;;19.50;8.63;;;;;;;10.60;68.57;102629.63;4928215;29;20533;-70
2021/03/02 08:54:04;;;;;;;16.13;9.00;;;;;;;10.65;68.41;102633.03;4893927;29;20028;-74
2021/03/02 08:56:31;;;;;;;15.65;8.27;;;;;;;11.06;68.32;102628.88;4930260;29;20054;-71
2021/03/02 08:59:03;;;;;;;21.05;9.40;;;;;;;11.18;66.01;102632.00;4930760;28;20303;-73
2021/03/02 09:01:33;;;;;;;13.80;8.10;;;;;;;11.19;66.72;102633.75;4927533;29;20687;-72
2021/03/02 09:04:16;;;;;;;15.50;8.80;;;;;;;11.45;66.09;102635.50;4911858;29;20262;-71
2021/03/02 09:06:47;;;;;;;18.20;8.07;;;;;;;11.30;64.88;102638.72;4933947;29;20426;-72
2021/03/02 09:09:14;;;;;;;16.60;7.78;;;;;;;11.56;65.28;102635.06;4935785;29;20050;-72
2021/03/02 09:11:51;;;;;;;13.82;7.63;;;;;;;11.45;64.52;102640.00;4937548;29;20039;-71
2021/03/02 09:14:19;;;;;;;14.35;7.90;;;;;;;11.71;64.20;102642.56;4931943;29;20027;-72
2021/03/02 09:16:58;;;;;;;16.83;8.63;;;;;;;11.45;64.05;102634.63;4930159;29;20043;-71
2021/03/02 09:19:35;;;;;;;18.52;7.80;;;;;;;11.22;64.27;102641.72;4938773;29;20066;-71
2021/03/02 09:22:02;;;;;;;14.18;7.05;;;;;;;11.13;65.52;102642.03;4931534;29;20069;-71
2021/03/02 09:24:30;;;;;;;16.38;8.02;;;;;;;11.55;64.22;102636.88;4912987;29;20039;-72
2021/03/02 09:27:06;;;;;;;17.27;7.93;;;;;;;11.39;63.47;102642.91;4927444;29;20050;-72
2021/03/02 09:29:51;;;;;;;15.98;7.53;;;;;;;11.02;65.71;102635.31;4929951;29;20039;-72
2021/03/02 09:32:23;;;;;;;16.33;8.23;;;;;;;10.76;66.79;102633.53;4927968;29;20058;-72
2021/03/02 09:34:54;;;;;;;14.65;7.88;;;;;;;10.72;68.40;102635.47;4909179;29;20069;-73
2021/03/02 09:37:20;;;;;;;18.58;8.05;;;;;;;10.79;67.91;102638.81;4928486;29;20171;-73
2021/03/02 09:39:58;;;;;;;18.35;8.23;;;;;;;10.68;68.26;102633.78;4931165;29;20150;-73
2021/03/02 09:42:26;;;;;;;16.60;8.27;;;;;;;10.75;68.04;102631.75;4921117;29;20039;-74
2021/03/02 09:44:53;;;;;;;20.65;9.23;;;;;;;10.76;67.70;102638.91;4910066;29;20074;-73
2021/03/02 09:47:30;;;;;;;16.52;7.70;;;;;;;10.82;68.18;102623.44;4912964;29;20035;-72
2021/03/02 09:50:20;;;;;;;16.60;8.65;;;;;;;10.70;67.67;102633.75;4910712;29;20178;-73
2021/03/02 09:52:50;;;;;;;17.75;8.25;;;;;;;10.75;68.59;102621.91;4935497;29;20081;-73
2021/03/02 09:55:16;;;;;;;18.10;8.30;;;;;;;10.95;68.17;102631.97;4928772;29;20040;-73
2021/03/02 09:57:50;;;;;;;18.70;7.45;;;;;;;11.03;68.25;102639.75;4910266;29;20035;-72
2021/03/02 10:00:17;;;;;;;21.33;8.30;;;;;;;11.09;67.06;102628.78;4909827;29;20032;-70
2021/03/02 10:02:54;;;;;;;16.63;8.60;;;;;;;11.20;66.28;102635.53;4898488;29;20059;-72
2021/03/02 10:05:45;;;;;;;18.75;9.55;;;;;;;11.27;66.59;102630.81;4925396;29;20038;-73
2021/03/02 10:08:17;;;;;;;16.40;8.55;;;;;;;11.28;66.24;102635.25;4934057;29;20079;-73
2021/03/02 10:10:42;;;;;;;18.83;9.25;;;;;;;11.26;66.00;102640.66;4894602;29;20040;-70
2021/03/02 10:13:08;;;;;;;19.45;8.85;;;;;;;11.31;65.25;102638.69;4925236;29;20126;-73
2021/03/02 10:15:34;;;;;;;21.00;9.82;;;;;;;11.28;65.94;102636.13;4927030;29;20483;-71
2021/03/02 10:18:23;;;;;;;16.80;8.40;;;;;;;11.31;65.48;102636.00;4928198;29;20063;-73
2021/03/02 10:21:08;;;;;;;19.80;9.52;;;;;;;11.32;65.85;102640.44;4936528;29;20479;-74
2021/03/02 10:23:39;;;;;;;18.25;9.95;;;;;;;11.41;65.06;102632.97;4921661;29;20042;-73
2021/03/02 10:26:05;;;;;;;20.20;8.95;;;;;;;11.41;65.43;102643.75;4925657;29;20040;-73
2021/03/02 10:28:34;;;;;;;19.58;9.00;;;;;;;11.50;65.70;102630.81;4909939;29;20043;-71
2021/03/02 10:31:00;;;;;;;20.40;9.48;;;;;;;11.51;65.47;102634.38;4927346;29;20042;-73
2021/03/02 10:33:26;;;;;;;19.30;9.57;;;;;;;11.61;65.15;102635.78;4926467;29;20050;-72
2021/03/02 10:35:53;;;;;;;18.33;9.23;;;;;;;11.74;65.39;102629.03;4911061;29;20039;-71
2021/03/02 10:38:19;;;;;;;18.63;9.10;;;;;;;11.85;65.03;102639.41;4929962;29;20039;-73
2021/03/02 10:40:44;;;;;;;17.45;8.80;;;;;;;11.95;64.91;102628.19;4922331;29;20062;-73
2021/03/02 10:43:10;;;;;;;36.70;9.45;;;;;;;12.02;63.84;102629.72;4891459;29;20032;-74
2021/03/02 10:45:35;;;;;;;19.20;8.75;;;;;;;12.02;64.53;102618.94;4926634;29;20040;-71
2021/03/02 10:48:02;;;;;;;18.95;9.18;;;;;;;12.11;63.65;102626.63;4895675;29;20431;-74
2021/03/02 10:50:28;;;;;;;22.65;9.48;;;;;;;12.25;63.02;102627.88;4919789;29;20054;-73
2021/03/02 10:52:55;;;;;;;24.77;9.93;;;;;;;12.16;63.58;102632.69;4893510;29;20028;-72
2021/03/02 10:55:21;;;;;;;19.48;9.25;;;;;;;12.28;63.42;102623.25;4927509;29;20538;-73
2021/03/02 10:57:46;;;;;;;19.88;8.95;;;;;;;12.38;63.19;102634.53;4919202;29;20063;-73
2021/03/02 11:00:12;;;;;;;17.67;8.77;;;;;;;12.39;62.40;102630.91;4926199;29;20042;-72
2021/03/02 11:02:37;;;;;;;21.35;9.48;;;;;;;12.51;61.57;102631.28;4929801;29;20103;-73
2021/03/02 11:05:04;;;;;;;20.83;9.13;;;;;;;12.66;61.82;102629.72;4927007;29;20525;-72
2021/03/02 11:07:30;;;;;;;17.23;8.93;;;;;;;12.69;62.00;102629.59;4932813;29;20536;-72
2021/03/02 11:09:55;;;;;;;19.92;8.75;;;;;;;12.82;59.75;102625.44;4908731;29;20346;-74
2021/03/02 11:12:21;;;;;;;20.27;9.20;;;;;;;12.84;59.86;102628.06;4926148;29;20024;-73
2021/03/02 11:14:47;;;;;;;20.05;9.82;;;;;;;12.80;60.25;102626.44;4908996;29;20047;-74
2021/03/02 11:17:12;;;;;;;23.58;9.65;;;;;;;12.91;60.18;102614.25;4910578;29;20050;-72
2021/03/02 11:19:38;;;;;;;19.38;9.98;;;;;;;13.02;60.06;102610.22;4923820;29;20031;-74
2021/03/02 11:22:03;;;;;;;22.67;10.10;;;;;;;13.11;59.25;102617.88;4914428;29;20035;-74